sensor_id;sensor_type;location;lat;lon;timestamp;pressure;altitude;pressure_sealevel;temperature;humidity
61742;BME280;47650;49.848;9.620;2023-12-28T00:01:22;99566.78;;;2.43;100.00
61742;BME280;47650;49.848;9.620;2023-12-28T00:03:48;99564.06;;;1.87;100.00
61742;BME280;47650;49.848;9.620;2023-12-28T00:06:13;99582.38;;;1.87;100.00
61742;BME280;47650;49.848;9.620;2023-12-28T00:08:39;99580.09;;;1.81;100.00
61742;BME280;47650;49.848;9.620;2023-12-28T00:11:06;99592.81;;;1.26;100.00
61742;BME280;47650;49.848;9.620;2023-12-28T00:13:31;99595.78;;;1.81;100.00
61742;BME280;47650;49.848;9.620;2023-12-28T00:15:56;99581.44;;;2.02;100.00
61742;BME280;47650;49.848;9.620;2023-12-28T00:18:23;99560.50;;;2.02;100.00
61742;BME280;47650;49.848;9.620;2023-12-28T00:20:49;99532.41;;;1.77;100.00
61742;BME280;47650;49.848;9.620;2023-12-28T00:23:14;99545.94;;;1.84;100.00
61742;BME280;47650;49.848;9.620;2023-12-28T00:25:39;99541.56;;;1.99;100.00
61742;BME280;47650;49.848;9.620;2023-12-28T00:28:05;99581.28;;;2.34;100.00
61742;BME280;47650;49.848;9.620;2023-12-28T00:30:30;99575.47;;;2.43;100.00
61742;BME280;47650;49.848;9.620;2023-12-28T00:32:57;99574.34;;;2.33;100.00
61742;BME280;47650;49.848;9.620;2023-12-28T00:35:22;99584.28;;;2.42;100.00
61742;BME280;47650;49.848;9.620;2023-12-28T00:37:47;99590.44;;;2.41;100.00
61742;BME280;47650;49.848;9.620;2023-12-28T00:40:13;99558.09;;;2.14;100.00
61742;BME280;47650;49.848;9.620;2023-12-28T00:42:38;99597.91;;;2.48;100.00
61742;BME280;47650;49.848;9.620;2023-12-28T00:45:08;99573.16;;;2.39;100.00
61742;BME280;47650;49.848;9.620;2023-12-28T00:47:34;99598.72;;;2.62;100.00
61742;BME280;47650;49.848;9.620;2023-12-28T00:50:01;99568.47;;;2.44;100.00
61742;BME280;47650;49.848;9.620;2023-12-28T00:52:26;99590.41;;;2.56;100.00
61742;BME280;47650;49.848;9.620;2023-12-28T00:54:51;99604.44;;;2.26;100.00
61742;BME280;47650;49.848;9.620;2023-12-28T00:57:16;99627.97;;;1.97;100.00
61742;BME280;47650;49.848;9.620;2023-12-28T00:59:42;99609.97;;;2.36;100.00
61742;BME280;47650;49.848;9.620;2023-12-28T01:02:08;99588.09;;;2.37;100.00
61742;BME280;47650;49.848;9.620;2023-12-28T01:04:34;99601.81;;;2.12;100.00
61742;BME280;47650;49.848;9.620;2023-12-28T01:06:59;99573.09;;;1.81;100.00
61742;BME280;47650;49.848;9.620;2023-12-28T01:09:27;99599.94;;;2.14;100.00
61742;BME280;47650;49.848;9.620;2023-12-28T01:11:52;99585.47;;;2.08;100.00
61742;BME280;47650;49.848;9.620;2023-12-28T01:14:18;99599.03;;;2.29;100.00
61742;BME280;47650;49.848;9.620;2023-12-28T01:16:43;99583.97;;;2.33;100.00
61742;BME280;47650;49.848;9.620;2023-12-28T01:19:09;99585.16;;;1.98;100.00
61742;BME280;47650;49.848;9.620;2023-12-28T01:21:36;99601.84;;;1.81;100.00
61742;BME280;47650;49.848;9.620;2023-12-28T01:24:02;99565.06;;;1.84;100.00
61742;BME280;47650;49.848;9.620;2023-12-28T01:26:27;99553.38;;;1.76;100.00
61742;BME280;47650;49.848;9.620;2023-12-28T01:28:52;99594.50;;;1.88;100.00
61742;BME280;47650;49.848;9.620;2023-12-28T01:31:18;99608.41;;;1.88;100.00
61742;BME280;47650;49.848;9.620;2023-12-28T01:33:43;99588.53;;;2.00;100.00
61742;BME280;47650;49.848;9.620;2023-12-28T01:38:43;99562.16;;;1.75;100.00
61742;BME280;47650;49.848;9.620;2023-12-28T01:41:08;99578.63;;;1.91;100.00
61742;BME280;47650;49.848;9.620;2023-12-28T01:43:34;99542.53;;;1.67;100.00
61742;BME280;47650;49.848;9.620;2023-12-28T01:45:59;99590.88;;;2.05;100.00
61742;BME280;47650;49.848;9.620;2023-12-28T01:48:24;99601.66;;;2.15;100.00
61742;BME280;47650;49.848;9.620;2023-12-28T01:50:50;99591.72;;;2.05;100.00
61742;BME280;47650;49.848;9.620;2023-12-28T01:53:15;99604.47;;;1.81;100.00
61742;BME280;47650;49.848;9.620;2023-12-28T01:58:08;99619.81;;;2.02;100.00
61742;BME280;47650;49.848;9.620;2023-12-28T02:00:33;99613.78;;;2.16;100.00
61742;BME280;47650;49.848;9.620;2023-12-28T02:03:02;99607.63;;;2.17;100.00
61742;BME280;47650;49.848;9.620;2023-12-28T02:05:27;99596.03;;;2.21;100.00
61742;BME280;47650;49.848;9.620;2023-12-28T02:07:53;99603.69;;;2.38;100.00
61742;BME280;47650;49.848;9.620;2023-12-28T02:10:19;99584.63;;;2.36;100.00
61742;BME280;47650;49.848;9.620;2023-12-28T02:12:44;99593.03;;;2.41;100.00
61742;BME280;47650;49.848;9.620;2023-12-28T02:15:09;99578.09;;;2.29;100.00
61742;BME280;47650;49.848;9.620;2023-12-28T02:17:55;99590.25;;;2.30;100.00
61742;BME280;47650;49.848;9.620;2023-12-28T02:20:24;99617.16;;;1.73;100.00
61742;BME280;47650;49.848;9.620;2023-12-28T02:22:52;99609.44;;;2.00;100.00
61742;BME280;47650;49.848;9.620;2023-12-28T02:25:17;99588.19;;;2.06;100.00
61742;BME280;47650;49.848;9.620;2023-12-28T02:27:45;99616.59;;;2.41;100.00
61742;BME280;47650;49.848;9.620;2023-12-28T02:30:16;99636.69;;;2.84;100.00
61742;BME280;47650;49.848;9.620;2023-12-28T02:35:33;99571.53;;;3.07;100.00
61742;BME280;47650;49.848;9.620;2023-12-28T02:38:07;99600.66;;;2.88;100.00
61742;BME280;47650;49.848;9.620;2023-12-28T02:40:37;99606.28;;;3.23;100.00
61742;BME280;47650;49.848;9.620;2023-12-28T02:43:06;99596.69;;;3.36;100.00
61742;BME280;47650;49.848;9.620;2023-12-28T02:45:31;99571.22;;;3.38;100.00
61742;BME280;47650;49.848;9.620;2023-12-28T02:47:58;99599.56;;;3.46;100.00
61742;BME280;47650;49.848;9.620;2023-12-28T02:50:23;99586.19;;;3.36;100.00
61742;BME280;47650;49.848;9.620;2023-12-28T02:52:48;99608.69;;;3.53;100.00
61742;BME280;47650;49.848;9.620;2023-12-28T02:55:13;99609.59;;;3.92;100.00
61742;BME280;47650;49.848;9.620;2023-12-28T02:57:39;99607.97;;;4.17;100.00
61742;BME280;47650;49.848;9.620;2023-12-28T03:00:05;99595.56;;;4.32;100.00
61742;BME280;47650;49.848;9.620;2023-12-28T03:02:30;99571.19;;;4.43;100.00
61742;BME280;47650;49.848;9.620;2023-12-28T03:04:56;99552.34;;;4.12;100.00
61742;BME280;47650;49.848;9.620;2023-12-28T03:07:21;99586.72;;;4.46;100.00
61742;BME280;47650;49.848;9.620;2023-12-28T03:09:47;99603.25;;;3.56;100.00
61742;BME280;47650;49.848;9.620;2023-12-28T03:12:12;99550.50;;;3.48;100.00
61742;BME280;47650;49.848;9.620;2023-12-28T03:14:38;99596.41;;;4.20;100.00
61742;BME280;47650;49.848;9.620;2023-12-28T03:17:03;99617.03;;;3.73;100.00
61742;BME280;47650;49.848;9.620;2023-12-28T03:19:28;99583.81;;;3.86;100.00
61742;BME280;47650;49.848;9.620;2023-12-28T03:21:54;99614.03;;;4.30;100.00
61742;BME280;47650;49.848;9.620;2023-12-28T03:24:19;99591.78;;;4.36;100.00
61742;BME280;47650;49.848;9.620;2023-12-28T03:26:45;99591.13;;;4.58;100.00
61742;BME280;47650;49.848;9.620;2023-12-28T03:29:11;99621.91;;;4.56;100.00
61742;BME280;47650;49.848;9.620;2023-12-28T03:31:39;99628.66;;;4.84;100.00
61742;BME280;47650;49.848;9.620;2023-12-28T03:34:06;99623.00;;;4.90;100.00
61742;BME280;47650;49.848;9.620;2023-12-28T03:36:34;99626.84;;;5.11;100.00
61742;BME280;47650;49.848;9.620;2023-12-28T03:38:59;99630.13;;;5.01;100.00
61742;BME280;47650;49.848;9.620;2023-12-28T03:41:25;99572.31;;;4.64;100.00
61742;BME280;47650;49.848;9.620;2023-12-28T03:43:50;99589.97;;;4.99;100.00
61742;BME280;47650;49.848;9.620;2023-12-28T03:46:15;99573.78;;;5.05;100.00
61742;BME280;47650;49.848;9.620;2023-12-28T03:48:40;99616.47;;;5.33;100.00
61742;BME280;47650;49.848;9.620;2023-12-28T03:51:06;99618.50;;;5.65;100.00
61742;BME280;47650;49.848;9.620;2023-12-28T03:53:32;99619.06;;;5.81;100.00
61742;BME280;47650;49.848;9.620;2023-12-28T03:55:59;99618.28;;;5.68;100.00
61742;BME280;47650;49.848;9.620;2023-12-28T03:58:25;99581.06;;;5.61;100.00
61742;BME280;47650;49.848;9.620;2023-12-28T04:00:50;99592.69;;;5.59;100.00
61742;BME280;47650;49.848;9.620;2023-12-28T04:03:15;99599.38;;;5.63;100.00
61742;BME280;47650;49.848;9.620;2023-12-28T04:05:42;99613.31;;;5.88;100.00
61742;BME280;47650;49.848;9.620;2023-12-28T04:08:08;99593.78;;;6.03;100.00
61742;BME280;47650;49.848;9.620;2023-12-28T04:10:33;99561.25;;;5.69;100.00
61742;BME280;47650;49.848;9.620;2023-12-28T04:12:59;99569.06;;;5.81;100.00
61742;BME280;47650;49.848;9.620;2023-12-28T04:15:27;99613.88;;;6.15;100.00
61742;BME280;47650;49.848;9.620;2023-12-28T04:17:53;99578.28;;;5.87;100.00
61742;BME280;47650;49.848;9.620;2023-12-28T04:20:18;99592.38;;;6.55;100.00
61742;BME280;47650;49.848;9.620;2023-12-28T04:22:43;99600.88;;;6.25;100.00
61742;BME280;47650;49.848;9.620;2023-12-28T04:25:09;99609.78;;;6.00;100.00
61742;BME280;47650;49.848;9.620;2023-12-28T04:27:35;99625.06;;;5.59;100.00
61742;BME280;47650;49.848;9.620;2023-12-28T04:30:00;99625.47;;;6.01;100.00
61742;BME280;47650;49.848;9.620;2023-12-28T04:32:27;99652.38;;;6.05;100.00
61742;BME280;47650;49.848;9.620;2023-12-28T04:34:53;99636.19;;;6.34;100.00
61742;BME280;47650;49.848;9.620;2023-12-28T04:37:19;99636.19;;;6.45;100.00
61742;BME280;47650;49.848;9.620;2023-12-28T04:39:45;99624.59;;;6.48;100.00
61742;BME280;47650;49.848;9.620;2023-12-28T04:42:10;99644.38;;;6.65;100.00
61742;BME280;47650;49.848;9.620;2023-12-28T04:44:38;99608.16;;;6.33;100.00
61742;BME280;47650;49.848;9.620;2023-12-28T04:47:04;99608.50;;;6.17;100.00
61742;BME280;47650;49.848;9.620;2023-12-28T04:49:30;99591.06;;;6.38;100.00
61742;BME280;47650;49.848;9.620;2023-12-28T04:51:56;99626.88;;;6.64;100.00
61742;BME280;47650;49.848;9.620;2023-12-28T04:54:22;99571.06;;;6.13;100.00
61742;BME280;47650;49.848;9.620;2023-12-28T04:56:50;99623.41;;;6.63;100.00
61742;BME280;47650;49.848;9.620;2023-12-28T04:59:15;99624.94;;;6.43;100.00
61742;BME280;47650;49.848;9.620;2023-12-28T05:01:43;99588.78;;;6.34;100.00
61742;BME280;47650;49.848;9.620;2023-12-28T05:04:09;99662.31;;;6.71;100.00
61742;BME280;47650;49.848;9.620;2023-12-28T05:06:34;99680.72;;;6.48;100.00
61742;BME280;47650;49.848;9.620;2023-12-28T05:08:59;99666.38;;;6.52;100.00
61742;BME280;47650;49.848;9.620;2023-12-28T05:11:25;99660.88;;;6.78;100.00
61742;BME280;47650;49.848;9.620;2023-12-28T05:13:50;99632.38;;;6.83;100.00
61742;BME280;47650;49.848;9.620;2023-12-28T05:16:15;99635.84;;;7.06;100.00
61742;BME280;47650;49.848;9.620;2023-12-28T05:18:40;99656.22;;;7.04;100.00
61742;BME280;47650;49.848;9.620;2023-12-28T05:21:06;99668.31;;;7.18;100.00
61742;BME280;47650;49.848;9.620;2023-12-28T05:23:32;99660.84;;;7.01;100.00
61742;BME280;47650;49.848;9.620;2023-12-28T05:25:57;99670.16;;;7.39;100.00
61742;BME280;47650;49.848;9.620;2023-12-28T05:28:23;99672.63;;;6.96;100.00
61742;BME280;47650;49.848;9.620;2023-12-28T05:30:48;99672.44;;;7.43;100.00
61742;BME280;47650;49.848;9.620;2023-12-28T05:33:13;99653.59;;;7.48;100.00
61742;BME280;47650;49.848;9.620;2023-12-28T05:35:39;99668.19;;;7.63;100.00
61742;BME280;47650;49.848;9.620;2023-12-28T05:38:04;99675.19;;;7.42;100.00
61742;BME280;47650;49.848;9.620;2023-12-28T05:40:31;99659.47;;;7.51;100.00
61742;BME280;47650;49.848;9.620;2023-12-28T05:42:56;99674.97;;;7.33;100.00
61742;BME280;47650;49.848;9.620;2023-12-28T05:45:21;99673.19;;;7.23;100.00
61742;BME280;47650;49.848;9.620;2023-12-28T05:47:48;99680.22;;;7.45;100.00
61742;BME280;47650;49.848;9.620;2023-12-28T05:50:17;99681.84;;;7.68;100.00
61742;BME280;47650;49.848;9.620;2023-12-28T05:52:42;99678.91;;;7.83;100.00
61742;BME280;47650;49.848;9.620;2023-12-28T05:55:07;99675.31;;;7.84;100.00
61742;BME280;47650;49.848;9.620;2023-12-28T05:57:33;99674.53;;;7.93;100.00
61742;BME280;47650;49.848;9.620;2023-12-28T05:59:58;99652.97;;;7.88;100.00
61742;BME280;47650;49.848;9.620;2023-12-28T06:02:24;99688.44;;;8.27;100.00
61742;BME280;47650;49.848;9.620;2023-12-28T06:04:49;99675.66;;;8.33;100.00
61742;BME280;47650;49.848;9.620;2023-12-28T06:07:14;99687.09;;;8.54;100.00
61742;BME280;47650;49.848;9.620;2023-12-28T06:09:40;99578.53;;;7.73;100.00
61742;BME280;47650;49.848;9.620;2023-12-28T06:12:05;99681.66;;;8.56;100.00
61742;BME280;47650;49.848;9.620;2023-12-28T06:14:32;99674.41;;;8.79;100.00
61742;BME280;47650;49.848;9.620;2023-12-28T06:16:57;99692.31;;;8.44;100.00
61742;BME280;47650;49.848;9.620;2023-12-28T06:21:50;99691.72;;;8.62;100.00
61742;BME280;47650;49.848;9.620;2023-12-28T06:24:16;99698.06;;;8.50;100.00
61742;BME280;47650;49.848;9.620;2023-12-28T06:26:41;99687.50;;;8.50;100.00
61742;BME280;47650;49.848;9.620;2023-12-28T06:29:08;99662.78;;;8.60;100.00
61742;BME280;47650;49.848;9.620;2023-12-28T06:31:34;99628.13;;;8.54;100.00
61742;BME280;47650;49.848;9.620;2023-12-28T06:34:04;99677.28;;;8.66;100.00
61742;BME280;47650;49.848;9.620;2023-12-28T06:36:31;99678.34;;;8.84;100.00
61742;BME280;47650;49.848;9.620;2023-12-28T06:38:57;99682.59;;;8.34;100.00
61742;BME280;47650;49.848;9.620;2023-12-28T06:41:29;99698.28;;;8.68;100.00
61742;BME280;47650;49.848;9.620;2023-12-28T06:43:54;99692.81;;;8.59;100.00
61742;BME280;47650;49.848;9.620;2023-12-28T06:46:19;99688.25;;;8.92;100.00
61742;BME280;47650;49.848;9.620;2023-12-28T06:48:45;99678.69;;;8.70;100.00
61742;BME280;47650;49.848;9.620;2023-12-28T06:51:18;99650.22;;;8.83;100.00
61742;BME280;47650;49.848;9.620;2023-12-28T06:53:44;99647.63;;;8.93;100.00
61742;BME280;47650;49.848;9.620;2023-12-28T06:56:09;99652.91;;;8.93;100.00
61742;BME280;47650;49.848;9.620;2023-12-28T06:58:35;99682.13;;;8.92;100.00
61742;BME280;47650;49.848;9.620;2023-12-28T07:01:03;99677.28;;;9.47;100.00
61742;BME280;47650;49.848;9.620;2023-12-28T07:03:28;99642.13;;;9.26;100.00
61742;BME280;47650;49.848;9.620;2023-12-28T07:05:57;99672.00;;;9.57;100.00
61742;BME280;47650;49.848;9.620;2023-12-28T07:08:25;99665.31;;;9.43;100.00
61742;BME280;47650;49.848;9.620;2023-12-28T07:10:50;99668.94;;;9.71;100.00
61742;BME280;47650;49.848;9.620;2023-12-28T07:15:43;99671.81;;;9.29;100.00
61742;BME280;47650;49.848;9.620;2023-12-28T07:18:08;99653.88;;;9.43;100.00
61742;BME280;47650;49.848;9.620;2023-12-28T07:20:36;99674.09;;;9.92;100.00
61742;BME280;47650;49.848;9.620;2023-12-28T07:23:01;99676.22;;;9.98;100.00
61742;BME280;47650;49.848;9.620;2023-12-28T07:25:26;99678.72;;;9.90;100.00
61742;BME280;47650;49.848;9.620;2023-12-28T07:27:52;99678.00;;;10.08;100.00
61742;BME280;47650;49.848;9.620;2023-12-28T07:30:17;99689.72;;;9.95;100.00
61742;BME280;47650;49.848;9.620;2023-12-28T07:32:43;99683.84;;;9.63;100.00
61742;BME280;47650;49.848;9.620;2023-12-28T07:35:08;99685.66;;;9.72;100.00
61742;BME280;47650;49.848;9.620;2023-12-28T07:37:34;99686.34;;;9.54;100.00
61742;BME280;47650;49.848;9.620;2023-12-28T07:40:00;99682.31;;;9.70;100.00
61742;BME280;47650;49.848;9.620;2023-12-28T07:42:25;99682.47;;;9.97;100.00
61742;BME280;47650;49.848;9.620;2023-12-28T07:44:51;99694.34;;;9.93;100.00
61742;BME280;47650;49.848;9.620;2023-12-28T07:47:16;99699.91;;;9.90;100.00
61742;BME280;47650;49.848;9.620;2023-12-28T07:49:41;99683.72;;;9.64;100.00
61742;BME280;47650;49.848;9.620;2023-12-28T07:52:06;99701.81;;;9.69;100.00
61742;BME280;47650;49.848;9.620;2023-12-28T07:54:32;99720.50;;;9.77;100.00
61742;BME280;47650;49.848;9.620;2023-12-28T07:56:57;99716.06;;;10.07;100.00
61742;BME280;47650;49.848;9.620;2023-12-28T07:59:26;99722.91;;;10.19;100.00
61742;BME280;47650;49.848;9.620;2023-12-28T08:01:52;99716.75;;;10.19;100.00
61742;BME280;47650;49.848;9.620;2023-12-28T08:04:19;99720.69;;;10.34;100.00
61742;BME280;47650;49.848;9.620;2023-12-28T08:06:44;99727.38;;;10.28;100.00
61742;BME280;47650;49.848;9.620;2023-12-28T08:09:09;99724.16;;;10.34;100.00
61742;BME280;47650;49.848;9.620;2023-12-28T08:11:36;99724.44;;;10.51;100.00
61742;BME280;47650;49.848;9.620;2023-12-28T08:14:03;99719.13;;;10.51;100.00
61742;BME280;47650;49.848;9.620;2023-12-28T08:16:29;99693.19;;;10.25;100.00
61742;BME280;47650;49.848;9.620;2023-12-28T08:18:54;99720.66;;;10.63;100.00
61742;BME280;47650;49.848;9.620;2023-12-28T08:21:19;99722.69;;;10.89;100.00
61742;BME280;47650;49.848;9.620;2023-12-28T08:23:44;99706.47;;;10.92;100.00
61742;BME280;47650;49.848;9.620;2023-12-28T08:26:10;99724.56;;;11.06;100.00
61742;BME280;47650;49.848;9.620;2023-12-28T08:28:36;99725.50;;;10.78;100.00
61742;BME280;47650;49.848;9.620;2023-12-28T08:31:02;99723.50;;;10.89;100.00
61742;BME280;47650;49.848;9.620;2023-12-28T08:33:29;99727.50;;;11.03;100.00
61742;BME280;47650;49.848;9.620;2023-12-28T08:35:55;99723.13;;;11.12;100.00
61742;BME280;47650;49.848;9.620;2023-12-28T08:38:20;99735.88;;;11.08;100.00
61742;BME280;47650;49.848;9.620;2023-12-28T08:40:46;99735.00;;;11.18;100.00
61742;BME280;47650;49.848;9.620;2023-12-28T08:43:11;99731.88;;;11.32;100.00
61742;BME280;47650;49.848;9.620;2023-12-28T08:45:38;99738.75;;;11.25;100.00
61742;BME280;47650;49.848;9.620;2023-12-28T08:48:05;99754.66;;;11.25;100.00
61742;BME280;47650;49.848;9.620;2023-12-28T08:52:59;99753.94;;;11.33;100.00
61742;BME280;47650;49.848;9.620;2023-12-28T08:55:24;99740.00;;;11.21;100.00
61742;BME280;47650;49.848;9.620;2023-12-28T08:57:49;99752.97;;;11.24;100.00
61742;BME280;47650;49.848;9.620;2023-12-28T09:00:14;99744.38;;;11.12;100.00
61742;BME280;47650;49.848;9.620;2023-12-28T09:02:42;99717.72;;;10.66;100.00
61742;BME280;47650;49.848;9.620;2023-12-28T09:05:10;99750.09;;;10.60;100.00
61742;BME280;47650;49.848;9.620;2023-12-28T09:07:36;99737.94;;;10.67;100.00
61742;BME280;47650;49.848;9.620;2023-12-28T09:10:08;99752.94;;;10.96;100.00
61742;BME280;47650;49.848;9.620;2023-12-28T09:12:34;99739.41;;;10.99;100.00
61742;BME280;47650;49.848;9.620;2023-12-28T09:14:59;99737.91;;;10.77;100.00
61742;BME280;47650;49.848;9.620;2023-12-28T09:17:25;99733.16;;;10.81;100.00
61742;BME280;47650;49.848;9.620;2023-12-28T09:19:50;99705.94;;;10.79;100.00
61742;BME280;47650;49.848;9.620;2023-12-28T09:22:15;99724.28;;;11.09;100.00
61742;BME280;47650;49.848;9.620;2023-12-28T09:24:42;99711.19;;;10.98;100.00
61742;BME280;47650;49.848;9.620;2023-12-28T09:27:07;99745.66;;;10.51;100.00
61742;BME280;47650;49.848;9.620;2023-12-28T09:29:32;99739.41;;;10.99;100.00
61742;BME280;47650;49.848;9.620;2023-12-28T09:32:00;99737.28;;;11.03;100.00
61742;BME280;47650;49.848;9.620;2023-12-28T09:34:27;99754.03;;;11.03;100.00
61742;BME280;47650;49.848;9.620;2023-12-28T09:36:52;99720.84;;;11.27;100.00
61742;BME280;47650;49.848;9.620;2023-12-28T09:39:19;99738.81;;;11.33;100.00
61742;BME280;47650;49.848;9.620;2023-12-28T09:41:49;99730.97;;;11.41;100.00
61742;BME280;47650;49.848;9.620;2023-12-28T09:44:15;99717.13;;;11.47;100.00
61742;BME280;47650;49.848;9.620;2023-12-28T09:46:42;99695.88;;;11.47;100.00
61742;BME280;47650;49.848;9.620;2023-12-28T09:49:08;99698.16;;;10.67;100.00
61742;BME280;47650;49.848;9.620;2023-12-28T09:51:34;99737.09;;;11.14;100.00
61742;BME280;47650;49.848;9.620;2023-12-28T09:54:00;99653.44;;;10.92;100.00
61742;BME280;47650;49.848;9.620;2023-12-28T09:56:26;99710.31;;;11.81;100.00
61742;BME280;47650;49.848;9.620;2023-12-28T09:58:51;99701.63;;;11.15;100.00
61742;BME280;47650;49.848;9.620;2023-12-28T10:01:18;99646.53;;;11.27;100.00
61742;BME280;47650;49.848;9.620;2023-12-28T10:03:44;99735.00;;;11.73;100.00
61742;BME280;47650;49.848;9.620;2023-12-28T10:06:10;99731.19;;;11.30;100.00
61742;BME280;47650;49.848;9.620;2023-12-28T10:08:35;99734.22;;;11.91;100.00
61742;BME280;47650;49.848;9.620;2023-12-28T10:11:04;99725.56;;;11.33;100.00
61742;BME280;47650;49.848;9.620;2023-12-28T10:13:32;99735.22;;;11.24;100.00
61742;BME280;47650;49.848;9.620;2023-12-28T10:15:58;99726.00;;;11.56;100.00
61742;BME280;47650;49.848;9.620;2023-12-28T10:18:24;99737.06;;;11.24;100.00
61742;BME280;47650;49.848;9.620;2023-12-28T10:20:50;99730.31;;;11.29;100.00
61742;BME280;47650;49.848;9.620;2023-12-28T10:23:17;99747.09;;;11.30;100.00
61742;BME280;47650;49.848;9.620;2023-12-28T10:25:42;99739.91;;;11.13;100.00
61742;BME280;47650;49.848;9.620;2023-12-28T10:28:09;99740.53;;;11.52;100.00
61742;BME280;47650;49.848;9.620;2023-12-28T10:30:35;99700.00;;;11.78;100.00
61742;BME280;47650;49.848;9.620;2023-12-28T10:33:00;99751.31;;;11.78;100.00
61742;BME280;47650;49.848;9.620;2023-12-28T10:35:28;99745.81;;;10.97;100.00
61742;BME280;47650;49.848;9.620;2023-12-28T10:37:55;99744.38;;;11.12;100.00
61742;BME280;47650;49.848;9.620;2023-12-28T10:40:23;99740.63;;;11.42;100.00
61742;BME280;47650;49.848;9.620;2023-12-28T10:42:54;99741.81;;;11.20;100.00
61742;BME280;47650;49.848;9.620;2023-12-28T10:45:23;99699.75;;;10.98;100.00
61742;BME280;47650;49.848;9.620;2023-12-28T10:48:11;99741.00;;;11.20;100.00
61742;BME280;47650;49.848;9.620;2023-12-28T10:50:41;99743.53;;;11.67;99.22
61742;BME280;47650;49.848;9.620;2023-12-28T11:01:26;99735.06;;;11.81;94.35
61742;BME280;47650;49.848;9.620;2023-12-28T11:06:34;99726.66;;;13.19;86.72
61742;BME280;47650;49.848;9.620;2023-12-28T11:09:00;99719.78;;;12.55;87.64
61742;BME280;47650;49.848;9.620;2023-12-28T11:11:27;99679.94;;;12.37;86.42
61742;BME280;47650;49.848;9.620;2023-12-28T11:13:55;99697.41;;;12.40;86.10
61742;BME280;47650;49.848;9.620;2023-12-28T11:16:23;99714.53;;;12.64;86.90
61742;BME280;47650;49.848;9.620;2023-12-28T11:18:50;99711.94;;;12.28;88.62
61742;BME280;47650;49.848;9.620;2023-12-28T11:21:16;99711.28;;;12.78;88.13
61742;BME280;47650;49.848;9.620;2023-12-28T11:23:44;99707.00;;;11.97;90.64
61742;BME280;47650;49.848;9.620;2023-12-28T11:26:17;99666.28;;;12.32;87.56
61742;BME280;47650;49.848;9.620;2023-12-28T11:28:43;99707.81;;;12.51;86.63
61742;BME280;47650;49.848;9.620;2023-12-28T11:31:15;99696.03;;;12.10;89.60
61742;BME280;47650;49.848;9.620;2023-12-28T11:33:50;99704.59;;;12.03;88.05
61742;BME280;47650;49.848;9.620;2023-12-28T11:36:35;99704.00;;;12.54;85.44
61742;BME280;47650;49.848;9.620;2023-12-28T11:39:03;99708.25;;;11.75;87.56
61742;BME280;47650;49.848;9.620;2023-12-28T11:41:31;99696.38;;;12.33;87.04
61742;BME280;47650;49.848;9.620;2023-12-28T11:44:04;99704.25;;;12.25;86.76
61742;BME280;47650;49.848;9.620;2023-12-28T11:46:32;99692.81;;;12.24;86.70
61742;BME280;47650;49.848;9.620;2023-12-28T11:49:08;99692.34;;;12.29;86.96
61742;BME280;47650;49.848;9.620;2023-12-28T11:51:36;99645.91;;;11.33;88.93
61742;BME280;47650;49.848;9.620;2023-12-28T11:54:03;99681.00;;;12.27;86.36
61742;BME280;47650;49.848;9.620;2023-12-28T11:56:29;99673.22;;;11.89;88.54
61742;BME280;47650;49.848;9.620;2023-12-28T11:58:57;99630.66;;;11.63;88.50
61742;BME280;47650;49.848;9.620;2023-12-28T12:01:24;99680.75;;;11.94;87.59
61742;BME280;47650;49.848;9.620;2023-12-28T12:03:51;99655.25;;;12.01;86.95
61742;BME280;47650;49.848;9.620;2023-12-28T12:06:19;99669.25;;;12.29;87.69
61742;BME280;47650;49.848;9.620;2023-12-28T12:08:46;99632.34;;;12.52;83.00
61742;BME280;47650;49.848;9.620;2023-12-28T12:11:16;99619.53;;;12.48;83.80
61742;BME280;47650;49.848;9.620;2023-12-28T12:13:43;99656.78;;;12.30;84.86
61742;BME280;47650;49.848;9.620;2023-12-28T12:16:08;99660.19;;;12.40;83.59
61742;BME280;47650;49.848;9.620;2023-12-28T12:18:34;99658.81;;;11.92;86.47
61742;BME280;47650;49.848;9.620;2023-12-28T12:21:01;99665.81;;;11.93;87.33
61742;BME280;47650;49.848;9.620;2023-12-28T12:23:27;99663.19;;;11.83;87.88
61742;BME280;47650;49.848;9.620;2023-12-28T12:25:53;99642.00;;;11.37;91.95
61742;BME280;47650;49.848;9.620;2023-12-28T12:28:18;99628.81;;;11.63;89.08
61742;BME280;47650;49.848;9.620;2023-12-28T12:30:52;99658.41;;;11.51;90.42
61742;BME280;47650;49.848;9.620;2023-12-28T12:33:18;99609.53;;;11.79;88.51
61742;BME280;47650;49.848;9.620;2023-12-28T12:35:45;99646.34;;;11.56;87.96
61742;BME280;47650;49.848;9.620;2023-12-28T12:38:11;99652.84;;;11.80;86.72
61742;BME280;47650;49.848;9.620;2023-12-28T12:40:36;99639.69;;;12.06;86.65
61742;BME280;47650;49.848;9.620;2023-12-28T12:43:02;99640.88;;;12.12;85.54
61742;BME280;47650;49.848;9.620;2023-12-28T12:45:28;99650.91;;;12.00;85.90
61742;BME280;47650;49.848;9.620;2023-12-28T12:47:54;99637.53;;;11.38;88.06
61742;BME280;47650;49.848;9.620;2023-12-28T12:50:19;99633.34;;;11.71;86.00
61742;BME280;47650;49.848;9.620;2023-12-28T12:52:45;99630.69;;;12.25;82.67
61742;BME280;47650;49.848;9.620;2023-12-28T12:55:13;99639.22;;;12.37;82.17
61742;BME280;47650;49.848;9.620;2023-12-28T12:57:39;99585.97;;;12.20;81.14
61742;BME280;47650;49.848;9.620;2023-12-28T13:00:06;99620.91;;;11.90;83.69
61742;BME280;47650;49.848;9.620;2023-12-28T13:02:34;99615.81;;;12.14;82.68
61742;BME280;47650;49.848;9.620;2023-12-28T13:05:02;99606.91;;;11.97;81.43
61742;BME280;47650;49.848;9.620;2023-12-28T13:07:27;99620.16;;;12.41;81.13
61742;BME280;47650;49.848;9.620;2023-12-28T13:09:53;99611.59;;;12.30;80.92
61742;BME280;47650;49.848;9.620;2023-12-28T13:12:19;99616.84;;;12.74;79.70
61742;BME280;47650;49.848;9.620;2023-12-28T13:14:44;99607.06;;;12.48;80.92
61742;BME280;47650;49.848;9.620;2023-12-28T13:17:10;99618.41;;;11.88;84.44
61742;BME280;47650;49.848;9.620;2023-12-28T13:19:35;99603.16;;;12.08;82.96